Time;durP1;ratioP1;P1;durP2;ratioP2;P2;SDS_P1;SDS_P2;PMS_P1;PMS_P2;Temp;Humidity;BMP_temperature;BMP_pressure;BME280_temperature;BME280_humidity;BME280_pressure;Samples;Min_cycle;Max_cycle;Signal;HPM_P1;HPM_P2
2022/04/24 00:00:21;;;;;;;61.93;57.10;;;;;;;11.78;100.00;100424.88;1932524;73;86433;-71
2022/04/24 00:06:06;;;;;;;61.53;56.87;;;;;;;11.83;100.00;100415.61;1988394;71;39641;-68
2022/04/24 00:11:54;;;;;;;60.63;56.40;;;;;;;11.90;100.00;100418.82;1845758;76;86560;-68
2022/04/24 00:17:39;;;;;;;62.07;57.33;;;;;;;11.97;100.00;100417.05;1879185;74;86085;-72
2022/04/24 00:23:25;;;;;;;62.13;57.90;;;;;;;11.96;100.00;100414.00;1799338;77;85342;-68
2022/04/24 00:29:09;;;;;;;63.00;58.63;;;;;;;11.98;100.00;100425.08;1957987;71;39500;-68
2022/04/24 00:34:53;;;;;;;61.80;57.27;;;;;;;11.88;100.00;100423.05;1845933;76;85439;-68
2022/04/24 00:40:37;;;;;;;63.53;59.20;;;;;;;11.79;100.00;100428.48;1869918;75;85972;-71
2022/04/24 00:46:31;;;;;;;64.30;59.37;;;;;;;11.66;100.00;100435.61;1915904;74;85672;-68
2022/04/24 00:52:17;;;;;;;68.70;63.83;;;;;;;11.50;100.00;100437.55;1843103;77;85388;-71
2022/04/24 00:58:01;;;;;;;71.27;66.07;;;;;;;11.48;100.00;100448.97;1952146;72;86296;-71
2022/04/24 01:03:45;;;;;;;70.90;66.30;;;;;;;11.30;100.00;100448.39;1798535;78;86017;-68
2022/04/24 01:09:31;;;;;;;72.43;67.40;;;;;;;11.06;100.00;100447.63;1857656;76;86801;-67
2022/04/24 01:12:03;;;;;;;74.07;69.12;;;;;;;10.91;100.00;100455.61;1796138;75;939059;-67
2022/04/24 01:17:48;;;;;;;72.67;67.33;;;;;;;10.79;100.00;100456.57;1888765;74;86808;-71
2022/04/24 01:23:38;;;;;;;76.93;71.50;;;;;;;10.69;100.00;100467.27;1878623;76;85484;-67
2022/04/24 01:29:21;;;;;;;78.33;72.90;;;;;;;10.60;100.00;100467.64;1907942;72;86376;-68
2022/04/24 01:35:07;;;;;;;76.83;71.17;;;;;;;10.48;100.00;100469.41;1958848;71;39595;-68
2022/04/24 01:40:51;;;;;;;76.67;71.23;;;;;;;10.55;100.00;100471.03;1849367;76;86381;-67
2022/04/24 01:46:35;;;;;;;81.10;75.03;;;;;;;10.40;100.00;100473.39;1888116;73;86164;-71
2022/04/24 01:52:19;;;;;;;81.93;75.77;;;;;;;10.47;100.00;100468.34;1930378;73;86721;-70
2022/04/24 01:58:03;;;;;;;80.70;75.40;;;;;;;10.27;100.00;100479.66;1803476;78;86266;-68
2022/04/24 02:03:47;;;;;;;81.10;75.43;;;;;;;10.16;100.00;100478.08;1801737;78;86407;-71
2022/04/24 02:09:33;;;;;;;76.77;70.97;;;;;;;10.18;100.00;100478.08;1857095;76;86279;-71
2022/04/24 02:15:19;;;;;;;81.67;75.93;;;;;;;10.22;100.00;100487.47;1940550;73;86313;-70
2022/04/24 02:21:03;;;;;;;80.30;74.20;;;;;;;10.13;100.00;100482.80;1987943;71;39473;-71
2022/04/24 02:26:50;;;;;;;80.17;74.23;;;;;;;9.86;100.00;100487.45;1890038;74;86473;-68
2022/04/24 02:32:34;;;;;;;79.87;73.93;;;;;;;9.46;100.00;100496.32;1896836;73;86419;-72
2022/04/24 02:38:19;;;;;;;79.50;73.47;;;;;;;9.40;100.00;100501.64;1946624;72;86513;-71
2022/04/24 02:44:03;;;;;;;82.80;76.40;;;;;;;9.37;100.00;100506.35;1892175;74;85355;-71
2022/04/24 02:49:47;;;;;;;80.07;74.20;;;;;;;9.34;100.00;100518.57;1801746;78;86752;-72
2022/04/24 02:55:31;;;;;;;77.13;71.20;;;;;;;9.25;100.00;100516.95;1818914;77;86257;-71
2022/04/24 03:01:15;;;;;;;79.73;73.70;;;;;;;9.23;100.00;100521.13;1938378;71;40268;-67
2022/04/24 03:07:00;;;;;;;80.10;74.13;;;;;;;9.14;100.00;100519.51;1835624;76;86407;-68
2022/04/24 03:12:44;;;;;;;76.83;71.03;;;;;;;9.28;100.00;100511.41;1818631;77;85889;-72
2022/04/24 03:18:31;;;;;;;77.13;71.33;;;;;;;9.12;100.00;100514.80;1862216;75;86583;-68
2022/04/24 03:24:15;;;;;;;75.57;69.27;;;;;;;9.17;100.00;100511.17;1975223;71;39483;-67
2022/04/24 03:30:00;;;;;;;78.60;72.07;;;;;;;9.03;100.00;100514.55;1832846;76;86289;-71
2022/04/24 03:35:46;;;;;;;78.47;72.13;;;;;;;9.21;100.00;100520.02;1808087;78;86572;-68
2022/04/24 03:41:30;;;;;;;75.93;69.77;;;;;;;9.08;100.00;100523.40;1807107;77;86805;-67
2022/04/24 03:47:14;;;;;;;76.60;70.30;;;;;;;9.06;100.00;100530.63;1973447;71;39701;-71
2022/04/24 03:52:58;;;;;;;74.90;68.40;;;;;;;9.00;100.00;100534.52;1847569;76;86549;-68
2022/04/24 03:58:41;;;;;;;80.83;73.93;;;;;;;9.07;100.00;100533.65;1881649;74;85396;-68
2022/04/24 04:04:26;;;;;;;78.00;71.27;;;;;;;9.14;100.00;100534.75;1808325;77;86351;-72
2022/04/24 04:10:12;;;;;;;76.00;69.80;;;;;;;9.14;100.00;100543.89;1986404;71;39566;-72
2022/04/24 04:15:55;;;;;;;75.93;69.17;;;;;;;9.26;100.00;100542.73;1841486;76;86736;-68
2022/04/24 04:21:39;;;;;;;75.83;69.57;;;;;;;9.13;100.00;100552.48;1906303;73;86470;-68
2022/04/24 04:27:26;;;;;;;75.70;69.27;;;;;;;9.05;100.00;100553.06;1941284;72;86551;-67
2022/04/24 04:33:10;;;;;;;76.93;70.40;;;;;;;8.93;100.00;100557.55;1978681;71;39677;-68
2022/04/24 04:38:54;;;;;;;75.40;68.90;;;;;;;8.94;100.00;100570.26;1874245;73;86410;-67
2022/04/24 04:44:40;;;;;;;77.43;70.93;;;;;;;9.06;100.00;100570.80;1914288;74;86692;-68
2022/04/24 04:50:25;;;;;;;77.23;70.73;;;;;;;9.16;100.00;100571.30;1923217;73;86675;-71
2022/04/24 04:56:09;;;;;;;79.20;72.13;;;;;;;9.09;100.00;100581.86;1975786;71;39614;-68
2022/04/24 05:01:52;;;;;;;80.00;73.17;;;;;;;9.01;100.00;100592.97;1840927;76;86665;-69
2022/04/24 05:07:37;;;;;;;80.40;73.20;;;;;;;8.93;100.00;100612.94;1881830;75;86207;-72
2022/04/24 05:13:25;;;;;;;79.13;72.50;;;;;;;8.92;100.00;100623.74;1919448;72;86261;-70
2022/04/24 05:19:09;;;;;;;81.57;74.40;;;;;;;8.73;100.00;100627.38;1986690;71;39734;-68
2022/04/24 05:24:54;;;;;;;78.70;71.77;;;;;;;8.94;100.00;100640.89;1862062;76;85539;-68
2022/04/24 05:30:38;;;;;;;81.17;73.77;;;;;;;8.91;100.00;100648.94;1880629;73;86344;-68
2022/04/24 05:36:21;;;;;;;80.10;73.00;;;;;;;8.88;100.00;100661.97;1909150;72;86499;-68
2022/04/24 05:42:06;;;;;;;82.37;75.10;;;;;;;9.12;100.00;100663.03;1977198;71;39528;-72
2022/04/24 05:47:51;;;;;;;81.73;74.50;;;;;;;9.12;100.00;100670.79;1883080;74;86480;-68
2022/04/24 05:56:52;;;;;;;80.40;73.63;;;;;;;9.23;100.00;100684.09;1904898;74;85756;-72
2022/04/24 06:02:35;;;;;;;83.53;76.57;;;;;;;9.41;100.00;100678.50;1881969;75;86279;-67
2022/04/24 06:08:21;;;;;;;83.07;75.97;;;;;;;9.69;100.00;100679.22;1924639;73;86742;-72
2022/04/24 06:14:05;;;;;;;77.93;71.50;;;;;;;9.78;100.00;100675.30;1944617;71;39600;-68
2022/04/24 06:19:51;;;;;;;81.83;75.03;;;;;;;9.95;100.00;100687.70;1887925;74;86720;-72
2022/04/24 06:25:36;;;;;;;79.93;73.27;;;;;;;10.27;100.00;100686.46;1879393;75;85979;-71
2022/04/24 06:31:21;;;;;;;79.53;72.63;;;;;;;10.36;100.00;100697.20;1927462;73;86397;-72
2022/04/24 06:37:07;;;;;;;80.33;73.83;;;;;;;10.60;100.00;100688.44;1957014;71;39578;-68
2022/04/24 06:42:54;;;;;;;78.67;71.90;;;;;;;10.78;100.00;100692.47;1836592;75;86305;-69
2022/04/24 06:48:39;;;;;;;78.57;71.93;;;;;;;10.69;100.00;100699.77;1885668;73;85385;-68
2022/04/24 06:54:23;;;;;;;78.77;71.90;;;;;;;10.76;100.00;100709.98;1918911;74;86425;-72
2022/04/24 07:00:09;;;;;;;77.73;71.33;;;;;;;11.26;100.00;100710.91;1947590;71;39678;-72
2022/04/24 07:05:56;;;;;;;79.53;73.43;;;;;;;11.57;100.00;100712.81;1825992;76;85510;-68
2022/04/24 07:11:42;;;;;;;76.97;71.00;;;;;;;11.59;100.00;100711.97;1884470;74;86076;-67
2022/04/24 07:17:26;;;;;;;78.80;72.80;;;;;;;11.72;100.00;100712.66;1810188;77;86038;-72
2022/04/24 07:23:11;;;;;;;79.63;73.63;;;;;;;11.78;100.00;100717.05;1986317;71;39611;-72
2022/04/24 07:28:57;;;;;;;77.83;71.87;;;;;;;12.11;100.00;100718.58;1849963;76;86215;-72
2022/04/24 07:34:41;;;;;;;75.37;69.70;;;;;;;12.34;100.00;100719.11;1883041;74;86739;-68
2022/04/24 07:40:28;;;;;;;77.60;71.87;;;;;;;12.58;100.00;100717.06;1853671;76;86351;-68
2022/04/24 07:46:13;;;;;;;75.27;70.33;;;;;;;12.81;100.00;100717.28;1980779;71;39742;-68
2022/04/24 07:51:57;;;;;;;73.27;68.07;;;;;;;12.72;100.00;100723.55;1908238;74;85620;-68
2022/04/24 07:57:40;;;;;;;66.77;61.83;;;;;;;13.29;100.00;100729.05;1895086;73;86657;-68
2022/04/24 08:03:26;;;;;;;67.83;62.83;;;;;;;13.54;100.00;100718.24;1808680;77;85975;-72
2022/04/24 08:09:10;;;;;;;64.73;60.10;;;;;;;13.82;100.00;100717.68;1986936;71;39509;-72
2022/04/24 08:14:55;;;;;;;65.07;60.47;;;;;;;13.76;100.00;100725.08;1950181;72;86467;-68
2022/04/24 08:20:40;;;;;;;63.30;58.43;;;;;;;14.25;100.00;100727.94;1872309;75;86537;-68
2022/04/24 08:26:26;;;;;;;61.87;57.37;;;;;;;14.56;100.00;100735.11;1903478;74;86206;-72
2022/04/24 08:32:11;;;;;;;52.53;48.80;;;;;;;14.73;100.00;100733.87;1985695;71;39623;-72
2022/04/24 08:37:57;;;;;;;51.77;48.00;;;;;;;14.90;100.00;100730.39;1951944;72;85872;-71
2022/04/24 08:46:57;;;;;;;52.10;48.40;;;;;;;15.10;100.00;100724.87;1840283;76;86273;-68
2022/04/24 08:55:57;;;;;;;48.37;45.03;;;;;;;15.20;100.00;100733.82;1898160;74;86363;-72
2022/04/24 09:01:46;;;;;;;46.97;43.67;;;;;;;15.51;100.00;100740.05;1887035;73;86311;-68
2022/04/24 09:07:33;;;;;;;45.93;42.73;;;;;;;16.00;100.00;100736.17;1863504;75;85999;-68
2022/04/24 09:14:14;;;;;;;43.13;40.20;;;;;;;15.92;100.00;100737.77;1910305;73;85460;-66
2022/04/24 09:19:24;;;;;;;42.10;38.80;;;;;;;16.11;100.00;100746.75;1913563;74;86537;-68
2022/04/24 09:25:12;;;;;;;40.00;37.17;;;;;;;16.33;100.00;100729.84;1986296;71;39615;-68
2022/04/24 09:30:56;;;;;;;35.00;32.30;;;;;;;16.44;100.00;100737.91;1835000;75;86752;-68
2022/04/24 09:37:00;;;;;;;33.37;30.87;;;;;;;16.18;100.00;100744.29;1876010;76;86461;-68
2022/04/24 09:42:54;;;;;;;32.07;29.37;;;;;;;16.66;100.00;100747.06;1810775;78;86488;-72
2022/04/24 09:48:41;;;;;;;31.20;28.87;;;;;;;16.52;100.00;100744.11;1883416;74;86238;-71
2022/04/24 09:54:27;;;;;;;28.37;26.23;;;;;;;16.92;100.00;100742.87;1801147;77;86667;-71
2022/04/24 10:00:13;;;;;;;29.27;27.07;;;;;;;16.86;100.00;100745.58;1986316;71;39569;-72
2022/04/24 10:06:01;;;;;;;28.00;25.63;;;;;;;16.93;100.00;100743.13;1925263;72;86313;-68
2022/04/24 10:11:46;;;;;;;25.77;23.97;;;;;;;17.13;100.00;100741.03;1795874;78;86412;-67
2022/04/24 10:21:25;;;;;;;24.63;22.63;;;;;;;16.94;100.00;100748.98;1941039;71;39601;-70
2022/04/24 10:27:12;;;;;;;23.40;21.47;;;;;;;17.36;100.00;100747.29;1941800;71;39759;-68
2022/04/24 10:33:18;;;;;;;20.40;18.97;;;;;;;17.33;100.00;100754.16;1927884;71;39584;-68
2022/04/24 10:39:19;;;;;;;19.57;18.17;;;;;;;17.41;100.00;100749.09;1986181;71;39466;-72
2022/04/24 10:45:14;;;;;;;17.57;16.27;;;;;;;17.57;100.00;100760.87;1986081;71;39634;-67
2022/04/24 10:51:02;;;;;;;18.13;16.53;;;;;;;17.66;100.00;100760.30;1838267;76;86760;-67
2022/04/24 10:57:05;;;;;;;16.73;15.60;;;;;;;17.73;100.00;100769.03;1843254;76;86736;-68
2022/04/24 11:06:23;;;;;;;17.33;16.03;;;;;;;17.56;100.00;100772.42;1920241;72;86081;-68
2022/04/24 11:12:11;;;;;;;17.03;15.70;;;;;;;17.82;100.00;100763.38;1984896;71;39498;-72
2022/04/24 11:17:55;;;;;;;16.87;15.47;;;;;;;17.38;100.00;100758.16;1937576;73;86173;-68
2022/04/24 11:23:40;;;;;;;17.00;15.57;;;;;;;17.73;100.00;100753.58;1887803;74;86601;-67
2022/04/24 11:29:25;;;;;;;15.53;14.43;;;;;;;18.09;100.00;100748.89;1808648;78;85532;-72
2022/04/24 11:35:11;;;;;;;16.40;15.27;;;;;;;17.45;100.00;100755.70;1912683;74;39754;-70
2022/04/24 11:37:47;;;;;;;16.07;14.97;;;;;;;17.54;100.00;100745.27;1843527;75;937688;-66
2022/04/24 11:43:32;;;;;;;13.67;12.97;;;;;;;17.58;100.00;100754.12;1808369;76;86143;-73
2022/04/24 11:55:21;;;;;;;14.97;14.03;;;;;;;18.12;100.00;100743.16;1926619;73;85368;-72
2022/04/24 12:01:14;;;;;;;15.17;14.00;;;;;;;18.03;100.00;100748.83;1983587;71;39602;-67
2022/04/24 12:07:07;;;;;;;14.90;13.90;;;;;;;17.64;100.00;100754.75;1825531;76;85547;-68
2022/04/24 12:12:52;;;;;;;15.50;14.50;;;;;;;18.12;100.00;100753.00;1891376;74;85296;-72
2022/04/24 12:18:38;;;;;;;15.20;14.10;;;;;;;17.97;100.00;100769.05;1890949;75;86563;-72
2022/04/24 12:24:41;;;;;;;14.50;13.50;;;;;;;17.74;100.00;100764.23;1847070;76;86336;-72
2022/04/24 12:30:35;;;;;;;14.50;13.60;;;;;;;18.36;100.00;100753.77;1868015;75;86607;-68
2022/04/24 12:36:25;;;;;;;15.43;14.33;;;;;;;18.64;100.00;100749.34;1922984;74;85348;-72
2022/04/24 12:42:17;;;;;;;14.23;13.40;;;;;;;18.84;100.00;100747.69;1981377;71;39584;-72
2022/04/24 12:48:01;;;;;;;14.00;13.20;;;;;;;18.35;100.00;100756.37;1978848;69;86249;-68
2022/04/24 12:53:46;;;;;;;13.50;12.80;;;;;;;18.11;100.00;100766.23;1809521;78;86246;-72
2022/04/24 12:59:29;;;;;;;14.40;13.50;;;;;;;17.99;100.00;100770.92;1939540;73;85969;-68
2022/04/24 13:05:14;;;;;;;14.20;13.20;;;;;;;18.61;100.00;100759.27;1978598;71;40515;-68
2022/04/24 13:10:58;;;;;;;14.93;13.90;;;;;;;18.26;100.00;100763.44;1831329;76;86370;-68
2022/04/24 13:22:44;;;;;;;14.03;13.17;;;;;;;18.47;100.00;100764.89;1824810;77;86099;-71
2022/04/24 13:28:28;;;;;;;15.20;13.97;;;;;;;18.72;100.00;100770.95;1806897;77;86574;-68
2022/04/24 13:34:12;;;;;;;13.53;12.67;;;;;;;19.05;100.00;100766.80;1983111;71;39582;-68
2022/04/24 13:39:56;;;;;;;13.73;13.03;;;;;;;19.22;100.00;100772.28;1825908;76;86231;-72
2022/04/24 13:45:40;;;;;;;13.80;12.87;;;;;;;19.33;100.00;100769.88;1883812;73;86379;-68
2022/04/24 13:51:25;;;;;;;13.10;12.40;;;;;;;18.54;100.00;100780.67;1912496;74;86530;-68
2022/04/24 13:57:08;;;;;;;13.17;12.47;;;;;;;18.09;100.00;100776.18;1984465;71;39408;-68
2022/04/24 14:02:52;;;;;;;13.70;12.73;;;;;;;18.59;100.00;100777.66;1846263;76;86206;-72
2022/04/24 14:08:37;;;;;;;13.53;12.73;;;;;;;18.69;100.00;100778.69;1872906;75;86207;-68
2022/04/24 14:14:21;;;;;;;13.50;12.77;;;;;;;18.35;100.00;100785.89;1937709;73;86369;-68
2022/04/24 14:20:09;;;;;;;14.60;13.40;;;;;;;18.35;100.00;100781.67;1924888;71;39682;-72
2022/04/24 14:25:53;;;;;;;14.10;13.23;;;;;;;18.06;100.00;100790.88;1848456;76;85417;-67
2022/04/24 14:31:37;;;;;;;13.70;12.90;;;;;;;18.18;100.00;100787.60;1871959;75;86511;-71
2022/04/24 14:37:21;;;;;;;15.13;14.03;;;;;;;18.29;100.00;100791.45;1910948;74;86494;-68
2022/04/24 14:43:05;;;;;;;13.47;12.57;;;;;;;18.27;100.00;100796.61;1944607;71;39574;-67
2022/04/24 15:00:53;;;;;;;15.70;14.50;;;;;;;19.12;100.00;100814.96;1824888;76;85478;-72
2022/04/24 15:06:37;;;;;;;13.97;13.07;;;;;;;19.14;100.00;100813.19;1872239;75;85464;-68
2022/04/24 15:12:21;;;;;;;14.33;13.20;;;;;;;18.32;100.00;100823.11;1927035;73;86197;-72
2022/04/24 15:18:07;;;;;;;14.40;13.60;;;;;;;18.01;100.00;100831.24;1985840;71;39700;-72
2022/04/24 15:23:54;;;;;;;14.10;13.30;;;;;;;17.88;100.00;100834.28;1845290;76;86767;-72
2022/04/24 15:29:38;;;;;;;14.00;13.10;;;;;;;17.87;100.00;100839.08;1889991;74;86284;-68
2022/04/24 15:32:10;;;;;;;13.93;12.82;;;;;;;17.80;100.00;100842.16;1832883;75;939200;-72
2022/04/24 15:37:54;;;;;;;14.67;13.57;;;;;;;17.75;100.00;100843.16;1829131;76;86415;-72
2022/04/24 15:43:39;;;;;;;14.17;13.07;;;;;;;17.76;100.00;100846.19;1881678;73;86383;-67
2022/04/24 15:49:23;;;;;;;13.43;12.57;;;;;;;17.72;100.00;100840.42;1921675;73;86499;-68
2022/04/24 15:55:15;;;;;;;13.87;12.97;;;;;;;17.51;100.00;100850.66;1985936;71;39581;-71
2022/04/24 16:00:58;;;;;;;15.00;13.90;;;;;;;17.36;100.00;100862.98;1892775;74;86254;-71
2022/04/24 16:06:42;;;;;;;14.63;13.73;;;;;;;17.48;100.00;100862.56;1882731;74;86273;-72
2022/04/24 16:12:26;;;;;;;13.93;13.23;;;;;;;17.84;100.00;100853.77;1912694;73;86288;-70
2022/04/24 16:18:11;;;;;;;12.97;12.27;;;;;;;17.76;100.00;100868.67;1975997;71;73667;-68
2022/04/24 16:23:58;;;;;;;13.77;12.87;;;;;;;17.56;100.00;100860.33;1892341;74;86212;-72
2022/04/24 16:29:56;;;;;;;13.73;12.73;;;;;;;17.26;100.00;100874.78;1894517;74;86083;-68
2022/04/24 16:35:44;;;;;;;13.80;12.80;;;;;;;17.11;100.00;100892.13;1871745;74;86399;-68
2022/04/24 16:41:28;;;;;;;13.67;12.73;;;;;;;17.30;100.00;100881.97;1803863;77;85514;-71
2022/04/24 16:47:12;;;;;;;13.80;12.90;;;;;;;17.30;100.00;100885.60;1962460;71;39676;-71
2022/04/24 16:58:56;;;;;;;14.37;13.20;;;;;;;17.18;100.00;100893.86;1823197;76;86598;-71
2022/04/24 17:04:32;;;;;;;13.03;12.30;;;;;;;17.09;100.00;100899.20;1847688;75;85590;-66
2022/04/24 17:07:03;;;;;;;13.25;12.13;;;;;;;17.04;100.00;100900.75;1759530;77;938919;-73
2022/04/24 17:09:34;;;;;;;13.40;12.43;;;;;;;17.01;100.00;100898.03;1762015;77;940778;-68
2022/04/24 17:12:06;;;;;;;13.47;12.63;;;;;;;16.94;100.00;100899.11;1738931;77;940835;-67
2022/04/24 17:14:36;;;;;;;13.00;12.23;;;;;;;16.82;100.00;100898.31;1774154;78;941034;-69
2022/04/24 17:20:22;;;;;;;13.07;12.10;;;;;;;16.73;100.00;100897.45;1861994;73;86548;-68
2022/04/24 17:26:08;;;;;;;11.73;11.03;;;;;;;16.68;100.00;100908.85;1983707;71;39724;-72
2022/04/24 17:31:54;;;;;;;12.00;11.23;;;;;;;16.73;100.00;100907.84;1848047;76;86290;-68
2022/04/24 17:37:38;;;;;;;12.17;11.47;;;;;;;16.57;100.00;100913.08;1871606;75;86598;-73
2022/04/24 17:43:23;;;;;;;13.10;12.20;;;;;;;16.52;100.00;100919.37;1922197;73;86192;-67
2022/04/24 17:49:07;;;;;;;11.53;10.83;;;;;;;16.39;100.00;100916.91;1985828;71;39627;-67
2022/04/24 17:54:52;;;;;;;12.37;11.63;;;;;;;16.21;100.00;100926.41;1842855;76;86275;-72
2022/04/24 18:00:36;;;;;;;12.10;11.40;;;;;;;16.03;100.00;100931.64;1890155;73;86297;-69
2022/04/24 18:06:23;;;;;;;11.13;10.33;;;;;;;16.01;100.00;100938.13;1917970;74;85626;-67
2022/04/24 18:12:10;;;;;;;11.57;10.77;;;;;;;15.86;100.00;100942.16;1986335;71;39575;-72
2022/04/24 18:21:02;;;;;;;10.70;10.00;;;;;;;15.65;100.00;100965.64;1993626;69;39664;-67
2022/04/24 18:23:33;;;;;;;10.80;10.10;;;;;;;15.49;100.00;100963.72;1919811;73;938813;-68
2022/04/24 18:26:04;;;;;;;11.40;10.70;;;;;;;15.49;100.00;100963.72;1873462;74;939675;-68
2022/04/24 18:28:36;;;;;;;11.60;10.90;;;;;;;15.42;100.00;100968.10;1926663;72;940805;-69
2022/04/24 18:31:07;;;;;;;11.73;10.82;;;;;;;15.25;100.00;100970.16;1910167;72;940976;-66
2022/04/24 18:42:56;;;;;;;11.23;10.63;;;;;;;15.00;100.00;100990.30;1947757;72;86196;-68
2022/04/24 18:48:43;;;;;;;11.60;10.80;;;;;;;14.97;100.00;100992.33;1874118;73;86372;-72
2022/04/24 18:54:28;;;;;;;11.87;11.17;;;;;;;14.63;100.00;101010.06;1807449;77;86400;-71
2022/04/24 19:00:14;;;;;;;12.73;11.73;;;;;;;14.71;100.00;101017.17;1984012;71;39633;-68
2022/04/24 19:12:00;;;;;;;12.40;11.50;;;;;;;14.36;100.00;101035.41;1834712;76;86574;-66
2022/04/24 19:17:48;;;;;;;11.53;10.87;;;;;;;14.39;100.00;101037.59;1829604;76;86465;-68
2022/04/24 19:23:33;;;;;;;11.93;11.17;;;;;;;14.34;100.00;101052.17;1803649;77;86690;-66
2022/04/24 19:29:21;;;;;;;12.17;11.47;;;;;;;14.18;100.00;101067.54;1868588;74;87049;-67
2022/04/24 19:35:10;;;;;;;12.23;11.33;;;;;;;13.81;100.00;101075.38;1987153;71;39580;-67
2022/04/24 19:40:57;;;;;;;11.57;10.87;;;;;;;14.00;100.00;101074.80;1855426;76;85561;-66
2022/04/24 19:46:41;;;;;;;11.70;10.97;;;;;;;13.88;100.00;101093.41;1884568;73;85835;-73
2022/04/24 19:52:26;;;;;;;11.53;10.77;;;;;;;13.86;100.00;101103.23;1876886;75;86851;-72
2022/04/24 19:58:10;;;;;;;11.80;11.10;;;;;;;13.74;100.00;101105.05;1985479;71;39632;-67
2022/04/24 20:03:55;;;;;;;12.30;11.60;;;;;;;13.41;100.00;101119.45;1849048;75;86271;-68
2022/04/24 20:09:40;;;;;;;11.60;10.97;;;;;;;13.29;100.00;101131.59;1885628;74;86411;-72
2022/04/24 20:15:25;;;;;;;11.50;10.90;;;;;;;13.15;100.00;101143.18;1910304;73;86774;-67
2022/04/24 20:21:13;;;;;;;12.50;11.70;;;;;;;13.10;100.00;101151.03;1963136;71;39590;-74
2022/04/24 20:26:59;;;;;;;11.97;11.40;;;;;;;13.05;100.00;101159.42;1983205;70;86356;-71
2022/04/24 20:32:43;;;;;;;11.83;11.10;;;;;;;13.24;100.00;101162.33;1913641;73;85975;-72
2022/04/24 20:38:28;;;;;;;11.80;11.10;;;;;;;13.20;100.00;101167.67;1808407;77;85780;-72
2022/04/24 20:44:15;;;;;;;11.57;11.07;;;;;;;13.04;100.00;101186.22;1940742;71;39623;-67
2022/04/24 20:49:59;;;;;;;11.90;11.10;;;;;;;13.03;100.00;101183.99;1837681;76;86708;-67
2022/04/24 20:55:45;;;;;;;11.60;11.00;;;;;;;13.02;100.00;101201.01;1899548;73;86032;-65
2022/04/24 21:01:30;;;;;;;11.03;10.50;;;;;;;12.88;100.00;101207.02;1828109;77;86220;-67
2022/04/24 21:07:17;;;;;;;11.97;11.27;;;;;;;12.77;100.00;101218.23;1977872;71;39641;-67
2022/04/24 21:13:06;;;;;;;11.60;10.87;;;;;;;12.56;100.00;101233.45;1955262;71;39609;-69
2022/04/24 21:18:49;;;;;;;12.27;11.57;;;;;;;12.31;100.00;101244.75;1882508;74;86281;-67
2022/04/24 21:24:35;;;;;;;11.73;11.13;;;;;;;12.27;100.00;101245.89;1872944;75;86468;-71
2022/04/24 21:30:20;;;;;;;11.57;10.90;;;;;;;12.08;100.00;101256.55;1924165;73;86382;-71
2022/04/24 21:36:05;;;;;;;12.17;11.57;;;;;;;11.49;100.00;101271.75;1947513;71;39410;-75
2022/04/24 21:41:50;;;;;;;12.60;11.80;;;;;;;11.35;100.00;101284.00;1884010;74;86635;-66
2022/04/24 21:47:38;;;;;;;13.20;12.33;;;;;;;11.01;100.00;101292.08;1883698;73;86794;-76
2022/04/24 21:53:24;;;;;;;12.57;11.80;;;;;;;11.05;100.00;101310.42;1917283;74;86724;-67
2022/04/24 21:59:08;;;;;;;12.53;11.83;;;;;;;10.96;100.00;101316.53;1985240;71;39553;-68
2022/04/24 22:04:52;;;;;;;12.80;11.80;;;;;;;10.74;100.00;101324.86;1851304;76;86425;-75
2022/04/24 22:10:38;;;;;;;13.03;12.30;;;;;;;10.64;100.00;101332.61;1871738;75;86463;-75
2022/04/24 22:16:22;;;;;;;12.70;12.00;;;;;;;10.50;100.00;101341.17;1912587;72;86346;-67
2022/04/24 22:28:10;;;;;;;13.07;12.27;;;;;;;10.64;100.00;101349.83;1979846;71;39643;-66
2022/04/24 22:33:54;;;;;;;12.93;12.20;;;;;;;10.43;100.00;101349.77;1974912;72;86531;-75
2022/04/24 22:43:00;;;;;;;14.43;13.40;;;;;;;10.52;100.00;101357.58;1835927;76;86212;-66
2022/04/24 22:48:43;;;;;;;14.07;13.17;;;;;;;10.48;100.00;101369.20;1882051;74;85528;-75
2022/04/24 22:54:27;;;;;;;15.77;14.87;;;;;;;10.20;100.00;101370.20;1808687;77;86428;-66
2022/04/24 23:00:13;;;;;;;16.93;15.83;;;;;;;9.81;100.00;101379.37;1978172;71;39623;-67
2022/04/24 23:06:00;;;;;;;18.47;17.23;;;;;;;10.06;100.00;101383.69;1841455;76;86327;-66
2022/04/24 23:11:46;;;;;;;21.07;19.57;;;;;;;9.62;100.00;101390.08;1808185;78;86347;-66
2022/04/24 23:23:36;;;;;;;24.07;22.53;;;;;;;9.47;100.00;101403.25;1887973;75;86447;-66
2022/04/24 23:29:21;;;;;;;25.53;23.83;;;;;;;9.68;100.00;101402.86;1916475;73;86593;-67
2022/04/24 23:35:10;;;;;;;27.23;25.50;;;;;;;9.53;100.00;101398.59;1987695;71;39574;-75
2022/04/24 23:40:55;;;;;;;35.27;33.03;;;;;;;9.32;100.00;101406.45;1824701;76;85322;-67
2022/04/24 23:46:40;;;;;;;38.00;35.67;;;;;;;8.97;100.00;101416.63;1888743;73;86509;-75
2022/04/24 23:52:27;;;;;;;45.87;43.13;;;;;;;8.93;100.00;101414.09;1805864;77;86249;-67
2022/04/24 23:58:10;;;;;;;50.47;47.47;;;;;;;8.94;100.00;101419.36;1985971;71;39690;-74
